Kyokuhoumaru No.12 — JL5963 — position and weather

sailwx.info

Track history (hours):
 
Tides and Currents Weather Stations Pressure Air Temp Water Temp Dewpoint Dewpoint Depression Visibility Wind Speed Wind Dir Waves Ship Positions

Kyokuhoumaru No.12

Last reported at 2014-Sep-25 00:28 UTC. Time now 2014-Sep-30 11:55 UTC.
Position N 34°08' E 135°05'.

Length 57 m.

Type: Tanker. MMSI: 431500879.

Date/timePositionNaut miles runAvg speedWind from/ knotsBaromVisibWave heightAir tempDewpointWater temp
2014-Sep-25 00:28N 34°08' E 135°05'5 4.3
2014-Sep-24 23:25N 34°10' E 135°09'0 0.0
2014-Sep-24 22:16N 34°10' E 135°09'0 0.0
2014-Sep-24 21:28N 34°10' E 135°09'0 0.0
2014-Sep-24 20:31N 34°10' E 135°09'0 0.0
2014-Sep-24 19:31N 34°10' E 135°09'0 0.0
2014-Sep-24 18:31N 34°10' E 135°09'3 2.6
2014-Sep-24 17:33N 34°10' E 135°06'26 0.6
2014-Sep-22 22:33N 34°35' E 135°08'1010.4
2014-Sep-22 21:33N 34°37' E 135°20'4 0.2
2014-Sep-22 03:33N 34°39' E 135°25'8 1.6
2014-Sep-21 22:16N 34°32' E 135°19'0 0.0
2014-Sep-21 21:28N 34°32' E 135°19'0 0.0
2014-Sep-21 20:28N 34°32' E 135°19'0 0.0
2014-Sep-21 19:22N 34°32' E 135°19'0 0.0
2014-Sep-21 18:22N 34°32' E 135°19'0 0.0
2014-Sep-21 16:04N 34°32' E 135°19'0 0.0
2014-Sep-21 15:10N 34°32' E 135°19'0 0.1
2014-Sep-21 14:28N 34°32' E 135°19'0 0.0
2014-Sep-21 13:10N 34°32' E 135°19'0 0.0
2014-Sep-21 11:22N 34°32' E 135°19'0 0.0
2014-Sep-21 10:04N 34°32' E 135°19'0 0.0
2014-Sep-21 09:22N 34°32' E 135°19'0 0.0
2014-Sep-21 08:28N 34°32' E 135°19'0 0.0
2014-Sep-21 07:16N 34°32' E 135°19'0 0.0
2014-Sep-21 06:22N 34°32' E 135°19'0 0.0
2014-Sep-21 04:22N 34°32' E 135°19'0 0.0
2014-Sep-21 01:10N 34°32' E 135°19'0 0.1
2014-Sep-21 00:16N 34°32' E 135°19'0 0.0
2014-Sep-20 23:16N 34°32' E 135°19'0 0.0
2014-Sep-20 22:22N 34°32' E 135°19'0 0.0
2014-Sep-20 21:22N 34°32' E 135°19'0 0.0
2014-Sep-20 19:28N 34°32' E 135°19'0 0.0
2014-Sep-20 18:22N 34°32' E 135°19'0 0.0
2014-Sep-20 17:28N 34°32' E 135°19'0 0.0
2014-Sep-20 16:28N 34°32' E 135°19'0 0.0
2014-Sep-20 15:28N 34°32' E 135°19'0 0.0
2014-Sep-20 14:28N 34°32' E 135°19'0 0.0
2014-Sep-20 13:10N 34°32' E 135°19'0 0.0
2014-Sep-20 12:28N 34°32' E 135°19'0 0.0
2014-Sep-20 11:28N 34°32' E 135°19'4 4.0
2014-Sep-20 10:29N 34°30' E 135°15'20 9.9
2014-Sep-20 08:29N 34°13' E 135°03'  
Track history (hours):
 
Tides and Currents Weather Stations Pressure Air Temp Water Temp Dewpoint Dewpoint Depression Visibility Wind Speed Wind Dir Waves Ship Positions

Kyokuhoumaru No.12

Last reported at 2014-Sep-25 00:28 UTC. Time now 2014-Sep-30 11:55 UTC.
Position N 34°08' E 135°05'.

Length 57 m.

Type: Tanker. MMSI: 431500879.

Date/timePositionNaut miles runAvg speedWind from/ knotsBaromVisibWave heightAir tempDewpointWater temp
2014-Sep-25 00:28N 34°08' E 135°05'5 4.3
2014-Sep-24 23:25N 34°10' E 135°09'0 0.0
2014-Sep-24 22:16N 34°10' E 135°09'0 0.0
2014-Sep-24 21:28N 34°10' E 135°09'0 0.0
2014-Sep-24 20:31N 34°10' E 135°09'0 0.0
2014-Sep-24 19:31N 34°10' E 135°09'0 0.0
2014-Sep-24 18:31N 34°10' E 135°09'3 2.6
2014-Sep-24 17:33N 34°10' E 135°06'26 0.6
2014-Sep-22 22:33N 34°35' E 135°08'1010.4
2014-Sep-22 21:33N 34°37' E 135°20'4 0.2
2014-Sep-22 03:33N 34°39' E 135°25'8 1.6
2014-Sep-21 22:16N 34°32' E 135°19'0 0.0
2014-Sep-21 21:28N 34°32' E 135°19'0 0.0
2014-Sep-21 20:28N 34°32' E 135°19'0 0.0
2014-Sep-21 19:22N 34°32' E 135°19'0 0.0
2014-Sep-21 18:22N 34°32' E 135°19'0 0.0
2014-Sep-21 16:04N 34°32' E 135°19'0 0.0
2014-Sep-21 15:10N 34°32' E 135°19'0 0.1
2014-Sep-21 14:28N 34°32' E 135°19'0 0.0
2014-Sep-21 13:10N 34°32' E 135°19'0 0.0
2014-Sep-21 11:22N 34°32' E 135°19'0 0.0
2014-Sep-21 10:04N 34°32' E 135°19'0 0.0
2014-Sep-21 09:22N 34°32' E 135°19'0 0.0
2014-Sep-21 08:28N 34°32' E 135°19'0 0.0
2014-Sep-21 07:16N 34°32' E 135°19'0 0.0
2014-Sep-21 06:22N 34°32' E 135°19'0 0.0
2014-Sep-21 04:22N 34°32' E 135°19'0 0.0
2014-Sep-21 01:10N 34°32' E 135°19'0 0.1
2014-Sep-21 00:16N 34°32' E 135°19'0 0.0
2014-Sep-20 23:16N 34°32' E 135°19'0 0.0
2014-Sep-20 22:22N 34°32' E 135°19'0 0.0
2014-Sep-20 21:22N 34°32' E 135°19'0 0.0
2014-Sep-20 19:28N 34°32' E 135°19'0 0.0
2014-Sep-20 18:22N 34°32' E 135°19'0 0.0
2014-Sep-20 17:28N 34°32' E 135°19'0 0.0
2014-Sep-20 16:28N 34°32' E 135°19'0 0.0
2014-Sep-20 15:28N 34°32' E 135°19'0 0.0
2014-Sep-20 14:28N 34°32' E 135°19'0 0.0
2014-Sep-20 13:10N 34°32' E 135°19'0 0.0
2014-Sep-20 12:28N 34°32' E 135°19'0 0.0
2014-Sep-20 11:28N 34°32' E 135°19'4 4.0
2014-Sep-20 10:29N 34°30' E 135°15'20 9.9
2014-Sep-20 08:29N 34°13' E 135°03'  

Dump ship's entire track history